Home > Products > Valid Products > TAF

000
FTUS42 KMHX 201700
TAFEWN
TAF
KEWN 201725Z 2018/2118 02018G28KT P6SM -SHRA OVC015
      TEMPO 2018/2021 2SM -RA BR OVC009
     FM210500 01015G25KT P6SM OVC008
     FM211300 01010KT P6SM OVC015=



000
FTUS42 KMHX 201100
TAFEWN
TAF
KEWN 201127Z 2012/2112 02012G19KT P6SM -RADZ SCT020 OVC035
      TEMPO 2012/2014 BKN020
     FM201400 03016G27KT 6SM -RADZ OVC015
     FM210500 01015G25KT P6SM OVC008=



000
FTUS42 KMHX 200900 AAA
TAFEWN
TAF AMD
KEWN 200959Z 2010/2106 02012G19KT 6SM -RADZ SCT010 OVC040
      TEMPO 2010/2012 BKN010
     FM201400 03016G27KT 6SM -RADZ OVC015
     FM210300 02015G25KT P6SM OVC008=



000
FTUS42 KMHX 200500
TAFEWN
TAF
KEWN 200531Z 2006/2106 02012G19KT 6SM -RADZ BKN008 OVC040
     FM201400 03016G27KT 6SM -RADZ OVC015
     FM210300 02015G25KT P6SM OVC008=



000
FTUS42 KMHX 200200 AAB
TAFEWN
TAF AMD
KEWN 200212Z 2002/2024 02010G15KT 6SM -RA BR SCT010 OVC020
      TEMPO 2002/2004 4SM BR OVC007
     FM200400 03012G17KT 5SM BR VCSH OVC005
     FM201400 05015G20KT P6SM VCSH OVC010=



000
FTUS42 KMHX 192300 AAA
TAFEWN
TAF AMD
KEWN 192334Z 2000/2024 02012G17KT 4SM -RA BR OVC007
      TEMPO 2000/2004 5SM BR OVC010
     FM200400 03012G17KT 5SM BR VCSH OVC005
     FM201400 05015G20KT P6SM VCSH OVC010=



000
FTUS42 KMHX 192300
TAFEWN
TAF
KEWN 192320Z 2000/2024 03010G15KT 5SM BR OVC007
     FM200100 03012G17KT 5SM BR VCSH OVC005
     FM201400 05015G20KT P6SM VCSH OVC010=



000
FTUS42 KMHX 191700
TAFEWN
TAF
KEWN 191726Z 1918/2018 04012G20KT 5SM BR VCSH OVC007
     FM201000 03018G25KT P6SM VCSH OVC015=



000
FTUS42 KMHX 191600 AAA
TAFEWN
TAF AMD
KEWN 191603Z 1916/2012 05015G22KT 6SM RA BKN007 OVC015
     FM200300 05014G20KT P6SM -RA OVC007=



000
FTUS42 KMHX 191100
TAFEWN
TAF
KEWN 191132Z 1912/2012 03012KT 5SM RA BKN007 OVC030
     FM191500 05015G22KT 6SM RA SCT007 OVC015
     FM200300 05014G20KT P6SM -RA OVC007=



000
FTUS42 KMHX 190500
TAFEWN
TAF
KEWN 190536Z 1906/2006 04012KT 6SM RA OVC007
     FM191400 04014G21KT 4SM RA OVC007
     FM191800 04013G20KT 6SM RA BKN007 OVC015
     FM200000 05014G20KT P6SM -RA OVC010=



000
FTUS42 KMHX 190200 AAA
TAFEWN
TAF AMD
KEWN 190207Z 1902/1924 04010KT 5SM -RA SCT030 OVC050
     FM190300 05012KT 4SM RA BR OVC010
     FM190600 04012KT 4SM RA OVC007
     FM191400 04014G21KT 4SM RA OVC007=



000
FTUS42 KMHX 182300
TAFEWN
TAF
KEWN 182321Z 1900/1924 04010KT P6SM SCT030 OVC050
     FM190300 05012KT 4SM RA BR OVC010
     FM190600 04012KT 4SM RA OVC007
     FM191400 04014G21KT 4SM RA OVC007=



000
FTUS42 KMHX 181700
TAFEWN
TAF
KEWN 181727Z 1818/1918 04010KT P6SM SCT030 OVC050
     FM190300 05012KT 4SM RA BR OVC010
     FM190600 04012KT 4SM RA OVC007=



000
FTUS42 KMHX 181400 AAB
TAFEWN
TAF AMD
KEWN 181416Z 1814/1912 04010KT P6SM SCT030 OVC200
     FM182100 06008KT P6SM SCT010 OVC050
     FM190300 06010KT 4SM RA BR BKN010=



000
FTUS42 KMHX 181300 AAA
TAFEWN
TAF AMD
KEWN 181327Z 1813/1912 03010KT P6SM OVC010
     FM181430 04010KT P6SM SCT030 OVC200
     FM182100 06008KT P6SM SCT010 OVC050
     FM190300 06010KT 4SM RA BR BKN010=



000
FTUS42 KMHX 181100
TAFEWN
TAF
KEWN 181131Z 1812/1912 03010KT P6SM OVC008
     FM181400 04010KT P6SM SCT030 OVC200
     FM182100 06008KT P6SM SCT010 OVC050
     FM190300 06010KT 4SM RA BR BKN010=



000
FTUS42 KMHX 180900 AAA
TAFEWN
TAF AMD
KEWN 180913Z 1809/1906 01008KT P6SM BKN010
     FM181100 03010KT P6SM OVC008
     FM181500 04010KT P6SM OVC030
     FM181800 06008KT P6SM OVC035
     FM190000 08010KT P6SM VCSH OVC040=



000
FTUS42 KMHX 180500
TAFEWN
TAF
KEWN 180533Z 1806/1906 03008KT P6SM BKN010
     FM180730 02010KT P6SM OVC007
     FM181500 04010KT P6SM OVC030
     FM181800 06008KT P6SM OVC035
     FM190000 08010KT P6SM VCSH OVC040=



000
FTUS42 KMHX 180000 AAA
TAFEWN
TAF AMD
KEWN 180007Z 1800/1824 03010G15KT P6SM SCT250
     FM180200 05010KT P6SM SKC
     FM180900 02010KT P6SM OVC050
     FM181500 04010KT P6SM OVC030=



    US Dept of Commerce
    National Oceanic and Atmospheric Administration
    National Weather Service
    1325 East West Highway
    Silver Spring, MD 20910
    Page Author: NWS Internet Services Team
Disclaimer
Information Quality
Credits
Glossary
Privacy Policy
Freedom of Information Act (FOIA)
About Us
Career Opportunities